Archiv-/Tagesdaten

--Timestamp---	Temp	Chill	HIndex	Humid	Dewpt	 Wind 	HiWind	WindDir	Rain 	Barom	Solar	 ET  	 UV 
--------------	----	-----	------	-----	-----	------	------	-------	-----	-----	-----	-----	----
20091208 00:00	6.8	6.8	6.8	94	5.9	2	5	135	0.0	1010.0	0	0.000	0.0
20091208 00:05	6.8	6.8	6.8	94	5.9	3	8	158	0.0	1010.0	0	0.000	0.0
20091208 00:10	6.7	6.7	6.7	94	5.8	2	5	158	0.0	1009.8	0	0.000	0.0
20091208 00:15	6.7	6.7	6.7	94	5.8	0	3	158	0.0	1009.7	0	0.000	0.0
20091208 00:20	6.7	6.7	6.7	94	5.8	2	3	158	0.0	1009.8	0	0.000	0.0
20091208 00:25	6.6	6.6	6.6	94	5.7	2	5	158	0.0	1009.8	0	0.000	0.0
20091208 00:30	6.6	6.6	6.6	94	5.7	0	3	158	0.0	1009.7	0	0.000	0.0
20091208 00:35	6.6	6.6	6.6	94	5.7	2	3	158	0.0	1009.6	0	0.000	0.0
20091208 00:40	6.6	6.6	6.6	94	5.7	2	5	158	0.0	1009.5	0	0.000	0.0
20091208 00:45	6.5	6.5	6.5	94	5.6	3	5	158	0.0	1009.5	0	0.000	0.0
20091208 00:50	6.4	6.4	6.4	94	5.5	5	8	158	0.0	1009.3	0	0.000	0.0
20091208 00:55	6.3	6.3	6.3	94	5.4	3	5	158	0.0	1009.2	0	0.000	0.0
20091208 01:00	6.3	6.3	6.3	94	5.4	2	6	180	0.0	1009.2	0	0.000	0.0
20091208 01:05	6.2	6.2	6.2	94	5.3	3	8	180	0.0	1009.2	0	0.000	0.0
20091208 01:10	6.1	6.1	6.1	94	5.2	0	2	180	0.0	1008.9	0	0.000	0.0
20091208 01:15	6.0	6.0	6.0	94	5.1	5	6	180	0.0	1008.8	0	0.000	0.0
20091208 01:20	5.8	5.8	5.8	94	4.9	3	8	180	0.0	1008.8	0	0.000	0.0
20091208 01:25	5.7	5.7	5.7	94	4.8	2	6	180	0.0	1008.7	0	0.000	0.0
20091208 01:30	5.6	5.6	5.6	94	4.7	3	8	180	0.0	1008.6	0	0.000	0.0
20091208 01:35	5.5	5.5	5.5	94	4.6	2	6	180	0.0	1008.7	0	0.000	0.0
20091208 01:40	5.4	5.4	5.4	94	4.6	3	8	180	0.0	1008.7	0	0.000	0.0
20091208 01:45	5.4	5.4	5.4	94	4.5	3	6	180	0.0	1008.7	0	0.000	0.0
20091208 01:50	5.3	5.3	5.3	94	4.4	2	5	180	0.0	1008.6	0	0.000	0.0
20091208 01:55	5.3	5.3	5.3	94	4.4	3	6	180	0.0	1008.5	0	0.000	0.0
20091208 02:00	5.3	5.3	5.3	94	4.4	2	6	180	0.0	1008.5	0	0.000	0.0
20091208 02:05	5.2	5.2	5.2	94	4.3	3	6	180	0.0	1008.4	0	0.000	0.0
20091208 02:10	5.2	5.2	5.2	94	4.3	3	6	180	0.0	1008.3	0	0.000	0.0
20091208 02:15	5.2	5.2	5.2	94	4.3	5	11	135	0.0	1008.4	0	0.000	0.0
20091208 02:20	5.1	5.1	5.1	94	4.2	2	5	135	0.0	1008.3	0	0.000	0.0
20091208 02:25	5.1	5.1	5.1	94	4.2	5	10	135	0.0	1008.1	0	0.000	0.0
20091208 02:30	4.9	4.9	4.9	94	4.1	5	6	135	0.0	1008.1	0	0.000	0.0
20091208 02:35	4.8	4.8	4.8	94	3.9	5	11	135	0.0	1008.0	0	0.000	0.0
20091208 02:40	4.7	4.7	4.7	94	3.8	5	8	135	0.0	1007.9	0	0.000	0.0
20091208 02:45	4.7	4.7	4.7	94	3.8	5	10	135	0.0	1008.0	0	0.000	0.0
20091208 02:50	4.6	4.6	4.6	94	3.7	5	10	135	0.0	1007.9	0	0.000	0.0
20091208 02:55	4.6	4.6	4.6	94	3.7	5	10	158	0.0	1007.9	0	0.000	0.0
20091208 03:00	4.5	4.5	4.5	94	3.6	5	10	158	0.0	1007.7	0	0.000	0.0
20091208 03:05	4.4	3.0	4.4	94	3.6	6	13	135	0.0	1007.4	0	0.000	0.0
20091208 03:10	4.3	2.8	4.3	94	3.5	6	11	135	0.0	1007.4	0	0.000	0.0
20091208 03:15	4.3	4.3	4.3	94	3.5	5	10	158	0.0	1007.5	0	0.000	0.0
20091208 03:20	4.3	4.3	4.3	94	3.4	5	8	135	0.0	1007.5	0	0.000	0.0
20091208 03:25	4.3	4.3	4.3	94	3.4	5	8	180	0.0	1007.6	0	0.000	0.0
20091208 03:30	4.3	4.3	4.3	94	3.4	5	8	202	0.0	1007.8	0	0.000	0.0
20091208 03:35	4.3	4.3	4.3	94	3.4	3	6	202	0.0	1007.8	0	0.000	0.0
20091208 03:40	4.3	4.3	4.3	95	3.5	3	5	202	0.0	1007.5	0	0.000	0.0
20091208 03:45	4.2	4.2	4.2	95	3.5	3	6	202	0.0	1007.5	0	0.000	0.0
20091208 03:50	4.3	4.3	4.3	94	3.4	5	8	158	0.0	1007.4	0	0.000	0.0
20091208 03:55	4.3	4.3	4.3	94	3.4	3	6	180	0.0	1007.5	0	0.000	0.0
20091208 04:00	4.3	4.3	4.3	94	3.4	2	5	180	0.0	1007.5	0	0.000	0.0
20091208 04:05	4.3	4.3	4.3	94	3.4	2	5	180	0.0	1007.6	0	0.000	0.0
20091208 04:10	4.3	4.3	4.3	94	3.5	2	5	180	0.0	1007.8	0	0.000	0.0
20091208 04:15	4.3	4.3	4.3	94	3.5	3	10	180	0.0	1007.9	0	0.000	0.0
20091208 04:20	4.3	4.3	4.3	94	3.5	5	8	202	0.0	1008.1	0	0.000	0.0
20091208 04:25	4.2	2.2	4.2	95	3.5	8	14	248	0.0	1008.5	0	0.000	0.0
20091208 04:30	4.2	2.6	4.2	95	3.4	6	10	270	0.0	1008.4	0	0.000	0.0
20091208 04:35	4.2	4.2	4.2	95	3.4	3	8	270	0.0	1008.4	0	0.000	0.0
20091208 04:40	4.2	4.2	4.2	95	3.5	3	6	270	0.0	1008.6	0	0.000	0.0
20091208 04:45	4.3	2.8	4.3	95	3.5	6	11	270	0.2	1008.8	0	0.000	0.0
20091208 04:50	4.4	3.0	4.4	95	3.7	6	16	248	0.2	1008.9	0	0.000	0.0
20091208 04:55	4.6	3.1	4.6	95	3.8	6	10	248	0.2	1008.8	0	0.000	0.0
20091208 05:00	4.7	4.7	4.7	95	3.9	5	8	248	0.0	1008.9	0	0.000	0.0
20091208 05:05	4.7	4.7	4.7	95	4.0	5	10	248	0.2	1009.0	0	0.000	0.0
20091208 05:10	4.8	4.8	4.8	95	4.0	5	8	248	0.0	1009.0	0	0.000	0.0
20091208 05:15	4.9	4.9	4.9	95	4.2	5	8	248	0.0	1009.0	0	0.000	0.0
20091208 05:20	4.9	4.9	4.9	95	4.2	5	10	248	0.0	1009.0	0	0.000	0.0
20091208 05:25	5.1	3.7	5.1	95	4.3	6	8	225	0.2	1009.1	0	0.000	0.0
20091208 05:30	5.2	3.8	5.2	95	4.4	6	11	248	0.0	1009.1	0	0.000	0.0
20091208 05:35	5.2	3.9	5.2	95	4.5	6	11	225	0.2	1009.2	0	0.000	0.0
20091208 05:40	5.3	4.0	5.3	95	4.6	6	10	248	0.0	1009.1	0	0.000	0.0
20091208 05:45	5.4	4.1	5.4	95	4.7	6	11	248	0.0	1009.1	0	0.000	0.0
20091208 05:50	5.6	4.2	5.6	95	4.8	6	10	270	0.2	1009.1	0	0.000	0.0
20091208 05:55	5.7	4.4	5.7	95	4.9	6	16	248	0.0	1009.1	0	0.000	0.0
20091208 06:00	5.8	4.1	5.8	95	5.0	8	14	270	0.2	1009.2	0	0.000	0.0
20091208 06:05	5.9	4.6	5.9	95	5.1	6	11	270	0.0	1009.1	0	0.000	0.0
20091208 06:10	5.9	4.7	5.9	95	5.2	6	11	270	0.0	1009.1	0	0.000	0.0
20091208 06:15	6.1	4.8	6.1	95	5.3	6	13	248	0.0	1009.2	0	0.000	0.0
20091208 06:20	6.1	4.4	6.1	95	5.4	8	18	270	0.2	1009.2	0	0.000	0.0
20091208 06:25	6.2	4.5	6.2	95	5.4	8	18	270	0.0	1009.2	0	0.000	0.0
20091208 06:30	6.2	3.9	6.2	95	5.5	11	21	270	0.0	1009.2	0	0.000	0.0
20091208 06:35	6.2	3.9	6.2	95	5.5	11	23	248	0.2	1009.3	0	0.000	0.0
20091208 06:40	6.2	3.9	6.2	95	5.5	11	19	248	0.0	1009.3	0	0.000	0.0
20091208 06:45	6.3	4.6	6.3	95	5.5	8	18	248	0.0	1009.2	0	0.000	0.0
20091208 06:50	6.3	4.0	6.3	95	5.5	11	19	270	0.0	1009.4	0	0.000	0.0
20091208 06:55	6.2	3.9	6.2	94	5.3	11	19	248	0.0	1009.3	0	0.000	0.0
20091208 07:00	6.2	4.1	6.2	94	5.3	10	18	248	0.2	1009.3	0	0.000	0.0
20091208 07:05	6.2	4.1	6.2	94	5.3	10	18	248	0.0	1009.4	0	0.000	0.0
20091208 07:10	6.2	3.8	6.2	94	5.3	11	23	248	0.2	1009.5	0	0.000	0.0
20091208 07:15	6.1	3.5	6.1	93	5.1	13	23	248	0.0	1009.5	0	0.000	0.0
20091208 07:20	6.1	3.4	6.1	93	5.0	13	21	248	0.4	1009.5	0	0.000	0.0
20091208 07:25	6.0	3.1	6.0	93	5.0	14	24	248	0.0	1009.5	0	0.000	0.0
20091208 07:30	6.0	3.3	6.0	92	4.8	13	24	248	0.2	1009.5	0	0.000	0.0
20091208 07:35	5.9	3.6	5.9	92	4.7	11	19	270	0.0	1009.5	0	0.000	0.0
20091208 07:40	5.9	3.6	5.9	92	4.7	11	21	248	0.0	1009.6	0	0.000	0.0
20091208 07:45	5.9	4.7	5.9	92	4.7	6	11	225	0.2	1009.6	0	0.000	0.0
20091208 07:50	5.9	3.8	5.9	92	4.7	10	18	248	0.0	1009.7	0	0.000	0.0
20091208 07:55	5.9	4.2	5.9	92	4.7	8	16	225	0.0	1009.7	0	0.000	0.0
20091208 08:00	5.8	3.7	5.8	92	4.6	10	16	248	0.0	1009.8	0	0.000	0.0
20091208 08:05	5.8	4.1	5.8	92	4.6	8	16	225	0.0	1010.0	0	0.000	0.0
20091208 08:10	5.8	4.1	5.8	92	4.6	8	16	248	0.0	1010.0	0	0.000	0.0
20091208 08:15	5.8	4.1	5.8	92	4.6	8	14	248	0.0	1010.3	0	0.000	0.0
20091208 08:20	5.8	4.5	5.8	92	4.6	6	11	248	0.2	1010.3	0	0.000	0.0
20091208 08:25	5.8	4.5	5.8	92	4.6	6	11	225	0.0	1010.4	3	0.000	0.0
20091208 08:30	5.8	3.4	5.8	92	4.6	11	21	225	0.0	1010.4	5	0.000	0.0
20091208 08:35	5.8	3.4	5.8	92	4.6	11	19	248	0.0	1010.5	4	0.000	0.0
20091208 08:40	5.8	2.9	5.8	92	4.6	14	26	248	0.0	1010.6	6	0.000	0.0
20091208 08:45	5.8	2.9	5.8	92	4.6	14	26	248	0.2	1010.7	6	0.000	0.0
20091208 08:50	5.9	2.9	5.9	92	4.7	14	29	248	0.0	1010.8	8	0.000	0.0
20091208 08:55	5.9	2.3	5.9	91	4.5	19	32	248	0.2	1010.9	9	0.000	0.0
20091208 09:00	5.9	1.5	5.9	90	4.4	27	43	248	0.0	1011.1	9	0.000	0.0
20091208 09:05	5.8	1.3	5.8	89	4.1	27	45	270	0.2	1011.3	11	0.000	0.0
20091208 09:10	5.7	1.3	5.7	89	4.0	26	43	292	0.0	1011.6	11	0.000	0.0
20091208 09:15	5.6	1.7	5.6	90	4.1	21	37	270	0.2	1011.7	12	0.000	0.0
20091208 09:20	5.6	1.5	5.6	89	3.9	23	35	270	0.0	1011.9	11	0.000	0.0
20091208 09:25	5.4	0.7	5.4	88	3.6	29	50	270	0.2	1012.2	11	0.000	0.0
20091208 09:30	5.4	1.1	5.4	88	3.6	24	42	270	0.0	1012.3	12	0.000	0.0
20091208 09:35	5.3	1.2	5.3	88	3.5	23	35	270	0.0	1012.4	12	0.000	0.0
20091208 09:40	5.3	1.5	5.3	89	3.6	19	32	270	0.2	1012.6	15	0.000	0.0
20091208 09:45	5.2	1.4	5.2	89	3.6	19	29	270	0.0	1012.6	19	0.000	0.0
20091208 09:50	5.2	1.4	5.2	89	3.5	19	31	270	0.2	1012.7	14	0.000	0.0
20091208 09:55	5.1	1.2	5.1	90	3.6	19	31	270	0.2	1012.8	19	0.000	0.0
20091208 10:00	5.1	1.4	5.1	90	3.6	18	34	270	0.0	1012.8	40	0.025	0.0
20091208 10:05	5.2	1.4	5.2	91	3.8	19	34	270	0.2	1013.0	27	0.000	0.0
20091208 10:10	5.2	1.2	5.2	90	3.7	21	34	248	0.0	1013.1	18	0.000	0.0
20091208 10:15	5.2	1.2	5.2	90	3.7	21	37	270	0.0	1013.2	20	0.000	0.0
20091208 10:20	5.2	1.2	5.2	90	3.7	21	39	270	0.0	1013.3	29	0.000	0.0
20091208 10:25	5.1	0.9	5.1	89	3.4	23	35	270	0.0	1013.4	28	0.000	0.0
20091208 10:30	5.1	0.7	5.1	89	3.4	24	40	270	0.0	1013.4	32	0.000	0.0
20091208 10:35	5.1	0.9	5.1	88	3.3	23	35	248	0.0	1013.3	42	0.000	0.0
20091208 10:40	5.1	0.8	5.1	88	3.3	24	37	270	0.0	1013.4	46	0.000	0.0
20091208 10:45	5.1	0.9	5.1	88	3.3	23	39	248	0.0	1013.5	54	0.000	0.0
20091208 10:50	5.1	0.9	5.1	87	3.1	23	43	270	0.0	1013.6	65	0.000	0.0
20091208 10:55	5.1	0.9	5.1	87	3.1	23	37	270	0.0	1013.7	54	0.000	0.0
20091208 11:00	5.1	0.6	5.1	86	3.0	26	43	270	0.0	1013.8	36	0.025	0.0
20091208 11:05	5.1	0.9	5.1	87	3.1	23	39	270	0.0	1014.0	26	0.000	0.0
20091208 11:10	5.0	1.0	5.0	87	3.0	21	39	270	0.0	1014.2	16	0.000	0.0
20091208 11:15	4.8	0.9	4.8	87	2.8	19	35	292	0.2	1014.4	13	0.000	0.0
20091208 11:20	4.4	0.0	4.4	88	2.6	23	34	270	0.2	1014.4	31	0.000	0.0
20091208 11:25	4.3	0.3	4.3	89	2.6	19	31	270	0.0	1014.3	40	0.000	0.0
20091208 11:30	4.4	0.4	4.4	89	2.7	19	32	270	0.0	1014.4	55	0.000	0.0
20091208 11:35	4.4	0.3	4.4	89	2.8	21	37	270	0.0	1014.4	62	0.000	0.0
20091208 11:40	4.6	0.6	4.6	88	2.7	19	34	270	0.0	1014.3	59	0.000	0.0
20091208 11:45	4.6	0.9	4.6	88	2.8	18	34	270	0.0	1014.4	58	0.000	0.0
20091208 11:50	4.7	0.6	4.7	88	2.9	21	32	270	0.0	1014.3	62	0.000	0.0
20091208 11:55	4.7	0.8	4.7	88	2.9	19	37	270	0.0	1014.2	75	0.000	0.0
20091208 12:00	4.8	0.3	4.8	87	2.8	24	40	248	0.0	1014.3	69	0.051	0.0
20091208 12:05	4.8	1.4	4.8	87	2.9	16	27	270	0.0	1014.4	66	0.000	0.0
20091208 12:10	4.8	1.0	4.8	87	2.9	19	32	248	0.0	1014.4	70	0.000	0.0
20091208 12:15	4.8	1.2	4.8	87	2.9	18	27	270	0.0	1014.4	63	0.000	0.0
20091208 12:20	4.9	0.8	4.9	86	2.7	21	35	270	0.0	1014.3	72	0.000	0.0
20091208 12:25	4.9	0.7	4.9	85	2.6	23	32	248	0.2	1014.4	45	0.000	0.0
20091208 12:30	4.9	0.9	4.9	85	2.6	21	35	248	0.0	1014.4	44	0.000	0.0
20091208 12:35	4.9	1.2	4.9	86	2.7	18	37	270	0.0	1014.5	58	0.000	0.0
20091208 12:40	4.9	1.2	4.9	85	2.6	18	31	270	0.0	1014.5	38	0.000	0.0
20091208 12:45	4.9	0.8	4.9	84	2.4	21	32	270	0.0	1014.5	35	0.000	0.0
20091208 12:50	4.9	1.0	4.9	84	2.4	19	39	270	0.0	1014.5	41	0.000	0.0
20091208 12:55	4.9	1.1	4.9	84	2.5	19	31	270	0.0	1014.4	55	0.000	0.0
20091208 13:00	4.9	0.9	4.9	83	2.3	21	34	270	0.0	1014.6	63	0.051	0.0
20091208 13:05	5.0	1.2	5.0	83	2.4	19	35	270	0.0	1014.7	75	0.000	0.0
20091208 13:10	5.1	0.9	5.1	83	2.4	23	37	270	0.0	1014.7	69	0.000	0.0
20091208 13:15	5.1	1.0	5.1	83	2.4	21	32	270	0.0	1014.8	63	0.000	0.0
20091208 13:20	5.1	1.0	5.1	82	2.2	21	34	270	0.0	1014.8	69	0.000	0.0
20091208 13:25	5.1	0.9	5.1	82	2.3	23	37	270	0.0	1014.8	86	0.000	0.0
20091208 13:30	5.2	1.6	5.2	82	2.3	18	27	270	0.0	1014.9	90	0.000	0.0
20091208 13:35	5.2	1.8	5.2	82	2.3	16	29	270	0.0	1014.9	85	0.000	0.0
20091208 13:40	5.2	1.4	5.2	81	2.2	19	32	270	0.0	1014.9	76	0.000	0.0
20091208 13:45	5.2	1.7	5.2	81	2.2	18	31	270	0.0	1015.1	71	0.000	0.0
20091208 13:50	5.2	1.9	5.2	81	2.2	16	27	270	0.0	1015.2	67	0.000	0.0
20091208 13:55	5.2	1.7	5.2	81	2.2	18	29	270	0.0	1015.2	62	0.000	0.0
20091208 14:00	5.2	1.2	5.2	80	2.0	21	34	270	0.0	1015.2	54	0.051	0.0
20091208 14:05	5.2	1.2	5.2	80	2.0	21	37	248	0.0	1015.5	60	0.000	0.0
20091208 14:10	5.1	1.5	5.1	80	1.9	18	31	270	0.0	1015.6	62	0.000	0.0
20091208 14:15	5.1	1.3	5.1	80	1.9	19	32	248	0.0	1015.5	53	0.000	0.0
20091208 14:20	5.2	1.4	5.2	80	2.0	19	31	270	0.0	1015.6	49	0.000	0.0
20091208 14:25	5.1	2.2	5.1	81	2.1	13	21	248	0.0	1015.6	47	0.000	0.0
20091208 14:30	5.1	1.7	5.1	80	1.9	16	29	270	0.0	1015.6	49	0.000	0.0
20091208 14:35	5.1	2.0	5.1	80	1.9	14	31	270	0.0	1015.7	49	0.000	0.0
20091208 14:40	5.1	2.0	5.1	81	2.1	14	24	270	0.0	1015.7	47	0.000	0.0
20091208 14:45	5.1	1.4	5.1	80	1.9	18	32	270	0.0	1015.7	49	0.000	0.0
20091208 14:50	5.1	1.5	5.1	80	1.9	18	29	270	0.0	1015.7	47	0.000	0.0
20091208 14:55	5.1	1.3	5.1	79	1.8	19	39	270	0.0	1015.8	33	0.000	0.0
20091208 15:00	5.1	2.0	5.1	80	1.9	14	29	270	0.0	1015.8	40	0.051	0.0
20091208 15:05	5.1	2.0	5.1	80	1.9	14	24	270	0.0	1015.9	38	0.000	0.0
20091208 15:10	5.1	2.0	5.1	80	1.9	14	24	270	0.0	1016.1	29	0.000	0.0
20091208 15:15	5.1	1.3	5.1	80	1.9	19	32	270	0.0	1016.2	24	0.000	0.0
20091208 15:20	5.1	1.4	5.1	80	1.9	18	27	270	0.0	1016.3	25	0.000	0.0
20091208 15:25	5.1	1.7	5.1	80	1.9	16	31	270	0.0	1016.3	26	0.000	0.0
20091208 15:30	4.9	2.0	4.9	81	2.0	13	23	270	0.0	1016.3	22	0.000	0.0
20091208 15:35	4.9	1.7	4.9	81	1.9	14	24	270	0.0	1016.4	17	0.000	0.0
20091208 15:40	4.8	1.9	4.8	81	1.9	13	21	270	0.0	1016.4	14	0.000	0.0
20091208 15:45	4.8	2.1	4.8	81	1.8	11	23	270	0.0	1016.5	12	0.000	0.0
20091208 15:50	4.8	1.8	4.8	81	1.8	13	23	270	0.0	1016.5	12	0.000	0.0
20091208 15:55	4.8	2.1	4.8	82	2.0	11	26	248	0.0	1016.6	12	0.000	0.0
20091208 16:00	4.8	2.1	4.8	82	2.0	11	21	270	0.0	1016.6	9	0.025	0.0
20091208 16:05	4.7	1.8	4.7	82	1.9	13	21	270	0.0	1016.7	8	0.000	0.0
20091208 16:10	4.7	2.0	4.7	82	1.9	11	18	270	0.0	1016.6	6	0.000	0.0
20091208 16:15	4.7	2.4	4.7	83	2.0	10	23	270	0.0	1016.8	5	0.000	0.0
20091208 16:20	4.6	2.7	4.6	83	2.0	8	16	270	0.0	1016.8	2	0.000	0.0
20091208 16:25	4.6	1.6	4.6	83	1.9	13	19	270	0.0	1016.9	0	0.000	0.0
20091208 16:30	4.6	1.9	4.6	82	1.8	11	23	270	0.0	1017.0	0	0.000	0.0
20091208 16:35	4.5	1.5	4.5	83	1.9	13	21	270	0.0	1017.0	0	0.000	0.0
20091208 16:40	4.4	1.7	4.4	83	1.8	11	19	248	0.0	1017.1	0	0.000	0.0
20091208 16:45	4.4	2.0	4.4	83	1.8	10	21	270	0.0	1017.2	0	0.000	0.0
20091208 16:50	4.3	2.4	4.3	83	1.7	8	16	270	0.0	1017.2	0	0.000	0.0
20091208 16:55	4.2	2.2	4.2	83	1.6	8	16	270	0.0	1017.3	0	0.000	0.0
20091208 17:00	4.2	2.2	4.2	83	1.5	8	11	270	0.0	1017.4	0	0.025	0.0
20091208 17:05	4.1	2.1	4.1	83	1.5	8	14	248	0.0	1017.4	0	0.000	0.0
20091208 17:10	4.1	2.0	4.1	83	1.4	8	16	270	0.0	1017.6	0	0.000	0.0
20091208 17:15	4.0	2.0	4.0	83	1.4	8	11	270	0.0	1017.6	0	0.000	0.0
20091208 17:20	3.9	1.9	3.9	83	1.3	8	16	270	0.0	1017.7	0	0.000	0.0
20091208 17:25	3.9	1.8	3.9	83	1.3	8	14	270	0.0	1017.7	0	0.000	0.0
20091208 17:30	3.8	1.8	3.8	83	1.2	8	14	248	0.0	1017.7	0	0.000	0.0
20091208 17:35	3.8	1.3	3.8	83	1.2	10	14	270	0.0	1017.7	0	0.000	0.0
20091208 17:40	3.8	1.3	3.8	83	1.2	10	16	270	0.0	1017.7	0	0.000	0.0
20091208 17:45	3.8	1.3	3.8	83	1.2	10	21	270	0.0	1017.7	0	0.000	0.0
20091208 17:50	3.8	1.3	3.8	83	1.2	10	19	248	0.0	1017.7	0	0.000	0.0
20091208 17:55	3.8	1.3	3.8	83	1.2	10	16	270	0.0	1017.7	0	0.000	0.0
20091208 18:00	3.8	0.9	3.8	83	1.2	11	19	270	0.0	1017.8	0	0.025	0.0
20091208 18:05	3.8	1.4	3.8	83	1.2	10	18	270	0.0	1017.7	0	0.000	0.0
20091208 18:10	3.8	1.4	3.8	83	1.2	10	18	270	0.0	1017.6	0	0.000	0.0
20091208 18:15	3.8	1.8	3.8	83	1.2	8	14	270	0.0	1017.7	0	0.000	0.0
20091208 18:20	3.8	1.3	3.8	83	1.2	10	16	248	0.0	1017.8	0	0.000	0.0
20091208 18:25	3.7	1.2	3.7	84	1.3	10	19	270	0.0	1017.9	0	0.000	0.0
20091208 18:30	3.7	0.0	3.7	85	1.4	16	32	270	0.0	1017.9	0	0.000	0.0
20091208 18:35	3.6	-0.1	3.6	85	1.3	16	32	248	0.0	1018.0	0	0.000	0.0
20091208 18:40	3.6	0.1	3.6	85	1.3	14	29	248	0.0	1018.1	0	0.000	0.0
20091208 18:45	3.6	0.4	3.6	85	1.3	13	24	248	0.0	1018.2	0	0.000	0.0
20091208 18:50	3.5	0.6	3.5	86	1.4	11	19	270	0.0	1018.2	0	0.000	0.0
20091208 18:55	3.4	0.9	3.4	86	1.3	10	18	248	0.0	1018.3	0	0.000	0.0
20091208 19:00	3.4	0.9	3.4	86	1.3	10	18	248	0.0	1018.4	0	0.025	0.0
20091208 19:05	3.4	0.5	3.4	86	1.3	11	24	248	0.0	1018.4	0	0.000	0.0
20091208 19:10	3.4	0.5	3.4	86	1.3	11	23	270	0.0	1018.5	0	0.000	0.0
20091208 19:15	3.4	-0.1	3.4	85	1.2	14	24	248	0.0	1018.5	0	0.000	0.0
20091208 19:20	3.4	0.2	3.4	85	1.1	13	21	270	0.0	1018.5	0	0.000	0.0
20091208 19:25	3.3	0.4	3.3	85	1.1	11	18	270	0.0	1018.6	0	0.000	0.0
20091208 19:30	3.3	0.8	3.3	85	1.1	10	21	270	0.0	1018.6	0	0.000	0.0
20091208 19:35	3.3	1.1	3.3	85	1.0	8	18	248	0.0	1018.5	0	0.000	0.0
20091208 19:40	3.2	1.0	3.2	85	0.9	8	13	248	0.0	1018.6	0	0.000	0.0
20091208 19:45	3.2	1.5	3.2	86	1.1	6	11	270	0.0	1018.6	0	0.000	0.0
20091208 19:50	3.2	1.0	3.2	86	1.1	8	16	248	0.0	1018.6	0	0.000	0.0
20091208 19:55	3.2	1.0	3.2	86	1.1	8	13	270	0.0	1018.6	0	0.000	0.0
20091208 20:00	3.2	1.5	3.2	86	1.1	6	11	248	0.0	1018.8	0	0.025	0.0
20091208 20:05	3.3	1.6	3.3	86	1.2	6	13	270	0.0	1018.8	0	0.000	0.0
20091208 20:10	3.3	1.7	3.3	86	1.2	6	18	270	0.0	1018.8	0	0.000	0.0
20091208 20:15	3.4	1.8	3.4	86	1.3	6	11	225	0.0	1018.8	0	0.000	0.0
20091208 20:20	3.5	1.9	3.5	85	1.2	6	11	248	0.0	1018.9	0	0.000	0.0
20091208 20:25	3.6	3.6	3.6	85	1.3	5	11	225	0.0	1018.9	0	0.000	0.0
20091208 20:30	3.6	2.0	3.6	85	1.3	6	14	248	0.0	1018.9	0	0.000	0.0
20091208 20:35	3.7	3.7	3.7	85	1.4	5	11	225	0.0	1018.8	0	0.000	0.0
20091208 20:40	3.7	2.1	3.7	84	1.3	6	13	248	0.0	1018.8	0	0.000	0.0
20091208 20:45	3.7	1.6	3.7	84	1.3	8	19	270	0.0	1018.8	0	0.000	0.0
20091208 20:50	3.8	1.3	3.8	84	1.3	10	19	270	0.0	1018.8	0	0.000	0.0
20091208 20:55	3.8	1.4	3.8	83	1.2	10	18	270	0.0	1018.9	0	0.000	0.0
20091208 21:00	3.8	1.4	3.8	83	1.2	10	18	270	0.0	1019.0	0	0.025	0.0
20091208 21:05	3.8	1.4	3.8	82	1.0	10	18	270	0.0	1019.1	0	0.000	0.0
20091208 21:10	3.9	2.3	3.9	82	1.1	6	11	248	0.0	1019.1	0	0.000	0.0
20091208 21:15	3.9	1.1	3.9	82	1.1	11	19	270	0.0	1019.1	0	0.000	0.0
20091208 21:20	3.9	1.4	3.9	82	1.1	10	19	270	0.0	1019.2	0	0.000	0.0
20091208 21:25	3.9	1.8	3.9	82	1.1	8	19	270	0.0	1019.3	0	0.000	0.0
20091208 21:30	3.9	1.4	3.9	82	1.1	10	18	270	0.0	1019.3	0	0.000	0.0
20091208 21:35	3.9	1.8	3.9	82	1.1	8	14	270	0.0	1019.3	0	0.000	0.0
20091208 21:40	3.8	0.7	3.8	82	1.0	13	19	270	0.0	1019.4	0	0.000	0.0
20091208 21:45	3.8	1.0	3.8	82	1.0	11	18	270	0.0	1019.5	0	0.000	0.0
20091208 21:50	3.8	0.4	3.8	82	1.0	14	21	270	0.0	1019.5	0	0.000	0.0
20091208 21:55	3.8	0.3	3.8	82	1.0	14	21	270	0.0	1019.5	0	0.000	0.0
20091208 22:00	3.7	0.3	3.7	83	1.1	14	23	292	0.0	1019.6	0	0.025	0.0
20091208 22:05	3.7	-0.5	3.7	84	1.2	19	32	292	0.0	1019.7	0	0.000	0.0
20091208 22:10	3.6	-0.6	3.6	84	1.1	19	32	270	0.0	1019.7	0	0.000	0.0
20091208 22:15	3.4	-0.8	3.4	85	1.2	19	31	270	0.2	1019.8	0	0.000	0.0
20091208 22:20	3.3	0.0	3.3	86	1.2	13	24	270	0.0	1019.8	0	0.000	0.0
20091208 22:25	3.2	0.6	3.2	86	1.1	10	19	270	0.0	1019.8	0	0.000	0.0
20091208 22:30	3.2	0.2	3.2	86	1.1	11	24	248	0.0	1019.9	0	0.000	0.0
20091208 22:35	3.2	0.2	3.2	86	1.1	11	23	270	0.0	1019.9	0	0.000	0.0
20091208 22:40	3.2	0.2	3.2	86	1.1	11	19	270	0.0	1020.1	0	0.000	0.0
20091208 22:45	3.2	0.2	3.2	86	1.1	11	23	248	0.0	1020.1	0	0.000	0.0
20091208 22:50	3.2	0.2	3.2	86	1.1	11	19	248	0.0	1020.2	0	0.000	0.0
20091208 22:55	3.2	0.2	3.2	86	1.1	11	24	292	0.0	1020.2	0	0.000	0.0
20091208 23:00	3.2	0.6	3.2	86	1.1	10	21	248	0.0	1020.2	0	0.025	0.0
20091208 23:05	3.1	0.5	3.1	86	1.0	10	19	248	0.0	1020.3	0	0.000	0.0
20091208 23:10	3.1	0.5	3.1	86	1.0	10	19	248	0.0	1020.3	0	0.000	0.0
20091208 23:15	3.1	0.1	3.1	86	1.0	11	23	248	0.0	1020.3	0	0.000	0.0
20091208 23:20	3.2	0.2	3.2	86	1.1	11	19	248	0.0	1020.4	0	0.000	0.0
20091208 23:25	3.2	0.2	3.2	85	0.9	11	19	248	0.0	1020.4	0	0.000	0.0
20091208 23:30	3.2	-0.1	3.2	85	0.9	13	21	248	0.0	1020.5	0	0.000	0.0
20091208 23:35	3.3	-0.3	3.3	85	1.0	14	23	248	0.0	1020.6	0	0.000	0.0
20091208 23:40	3.4	-0.1	3.4	84	0.9	14	24	248	0.0	1020.7	0	0.000	0.0
20091208 23:45	3.4	-0.1	3.4	84	1.0	14	26	270	0.0	1020.8	0	0.000	0.0
20091208 23:50	3.4	-0.3	3.4	83	0.8	16	26	270	0.0	1020.8	0	0.000	0.0
20091208 23:55	3.5	-0.3	3.5	83	0.9	16	27	248	0.0	1020.9	0	0.000	0.0



Please note the license to use and transfer of this data:
http://creativecommons.org/licenses/by-nc-sa/3.0/deed.en

Bitte beachten sie die Lizenz zur Verwertung und Weitergabe der Daten:
http://creativecommons.org/licenses/by-nc-sa/3.0/deed.de

zurück zur Übersicht der Archivdaten (Monats und Tagesdaten)

Cookies helfen bei der Bereitstellung von Inhalten. Durch die Nutzung dieser Seiten erklärst du dich damit einverstanden, dass Cookies auf deinem Rechner gespeichert werden. Weitere Information